createdAt,value
2018-01-31T01:52:21.062Z,4.50
2018-01-31T01:54:22.172Z,4.50
2018-01-31T01:56:50.295Z,4.60
2018-01-31T01:59:18.409Z,4.60
2018-01-31T02:01:46.550Z,4.60
2018-01-31T02:04:14.664Z,4.70
2018-01-31T02:06:43.561Z,4.70
2018-01-31T02:09:12.447Z,4.70
2018-01-31T02:11:41.377Z,4.70
2018-01-31T02:14:09.493Z,4.70
2018-01-31T02:16:55.507Z,4.80
2018-01-31T02:19:24.384Z,4.80
2018-01-31T02:21:53.278Z,4.80
2018-01-31T02:24:22.165Z,4.80
2018-01-31T02:26:51.104Z,4.80
2018-01-31T02:29:19.216Z,4.70
2018-01-31T02:31:47.352Z,4.80
2018-01-31T02:34:15.476Z,4.90
2018-01-31T02:36:44.352Z,4.80
2018-01-31T02:39:25.071Z,4.80
2018-01-31T02:41:53.201Z,4.80
2018-01-31T02:44:22.082Z,4.80
2018-01-31T02:46:50.982Z,4.80
2018-01-31T02:49:19.855Z,4.80
2018-01-31T02:51:48.874Z,4.90
2018-01-31T02:54:16.989Z,4.90
2018-01-31T02:56:45.116Z,4.90
2018-01-31T02:59:13.254Z,4.90
2018-01-31T03:01:41.379Z,5.00
2018-01-31T03:04:09.493Z,5.00
2018-01-31T03:06:37.629Z,5.00
2018-01-31T03:09:05.751Z,5.00
2018-01-31T03:11:34.652Z,5.00
2018-01-31T03:14:03.523Z,5.10
2018-01-31T03:16:32.434Z,5.00
2018-01-31T03:19:00.544Z,5.00
2018-01-31T03:21:28.685Z,5.20
2018-01-31T03:23:56.817Z,5.20
2018-01-31T03:26:24.925Z,5.10
2018-01-31T03:28:53.065Z,5.10
2018-01-31T03:31:21.224Z,5.10
2018-01-31T03:33:49.361Z,5.10
2018-01-31T03:36:17.484Z,5.10
2018-01-31T03:38:46.384Z,5.10
2018-01-31T03:41:15.719Z,5.10
2018-01-31T03:43:43.842Z,5.10
2018-01-31T03:46:11.953Z,5.10
2018-01-31T03:48:40.096Z,5.00
2018-01-31T03:51:08.997Z,5.00
2018-01-31T03:53:37.171Z,5.00
2018-01-31T03:56:05.300Z,5.00
2018-01-31T03:58:33.420Z,5.10
2018-01-31T04:01:01.566Z,5.20
2018-01-31T04:03:30.441Z,5.20
2018-01-31T04:05:58.563Z,5.10
2018-01-31T04:08:26.687Z,5.10
2018-01-31T04:10:54.813Z,5.10
2018-01-31T04:13:22.928Z,5.10
2018-01-31T04:15:51.044Z,5.10
2018-01-31T04:18:19.164Z,5.00
2018-01-31T04:20:47.312Z,4.90
2018-01-31T04:23:15.425Z,4.80
2018-01-31T04:25:44.315Z,4.80
2018-01-31T04:28:13.217Z,4.80
2018-01-31T04:30:41.336Z,4.70
2018-01-31T04:33:09.473Z,4.90
2018-01-31T04:35:37.591Z,4.90
2018-01-31T04:38:05.716Z,5.00
2018-01-31T04:40:33.897Z,5.00
2018-01-31T04:43:02.040Z,5.00
2018-01-31T04:45:30.921Z,4.90
2018-01-31T04:47:59.820Z,4.90
2018-01-31T04:50:28.710Z,4.90
2018-01-31T04:52:57.635Z,5.00
2018-01-31T04:55:25.753Z,4.90
2018-01-31T04:57:53.873Z,4.90
2018-01-31T05:00:22.028Z,5.00
2018-01-31T05:02:50.148Z,4.90
2018-01-31T05:05:18.286Z,4.90
2018-01-31T05:07:46.494Z,4.90
2018-01-31T05:10:14.604Z,5.00
2018-01-31T05:12:42.725Z,5.00
2018-01-31T05:15:11.226Z,5.00
2018-01-31T05:17:40.252Z,5.10
2018-01-31T05:20:08.521Z,5.10
2018-01-31T05:22:37.420Z,5.10
2018-01-31T05:25:05.544Z,5.00
2018-01-31T05:27:33.664Z,5.00
2018-01-31T05:30:01.797Z,5.20
2018-01-31T05:32:29.923Z,5.10
2018-01-31T05:34:58.143Z,5.10
2018-01-31T05:37:26.265Z,5.10
2018-01-31T05:39:55.131Z,5.10
2018-01-31T05:42:23.270Z,5.00
2018-01-31T05:44:51.388Z,5.00
2018-01-31T05:47:19.524Z,4.90
2018-01-31T05:49:48.772Z,4.90
2018-01-31T05:52:16.901Z,4.90
2018-01-31T05:54:45.807Z,4.80
2018-01-31T05:57:14.768Z,4.90
2018-01-31T05:59:42.864Z,4.90
2018-01-31T06:02:10.993Z,4.80
2018-01-31T06:04:39.160Z,4.90
2018-01-31T06:07:07.304Z,4.90
2018-01-31T06:09:35.522Z,4.80
2018-01-31T06:12:03.654Z,4.80
2018-01-31T06:14:31.806Z,4.80
2018-01-31T06:16:59.993Z,4.80
2018-01-31T06:19:28.112Z,4.90
2018-01-31T06:21:57.021Z,4.80
2018-01-31T06:24:25.937Z,4.80
2018-01-31T06:26:54.052Z,4.90
2018-01-31T06:29:22.182Z,4.90
2018-01-31T06:31:50.293Z,4.80
2018-01-31T06:34:19.208Z,4.80
2018-01-31T06:36:47.330Z,4.80
2018-01-31T06:39:15.474Z,4.80
2018-01-31T06:41:43.600Z,4.80
2018-01-31T06:44:11.728Z,4.90
2018-01-31T06:46:39.862Z,4.80
2018-01-31T06:49:07.976Z,4.80
2018-01-31T06:51:36.106Z,4.90
2018-01-31T06:54:04.993Z,4.80
2018-01-31T06:56:33.888Z,4.80
2018-01-31T06:59:02.005Z,4.80
2018-01-31T07:01:30.209Z,4.90
2018-01-31T07:03:58.714Z,4.90
2018-01-31T07:06:27.631Z,4.90
2018-01-31T07:08:55.745Z,4.90
2018-01-31T07:11:23.873Z,5.00
2018-01-31T07:13:51.990Z,5.00
2018-01-31T07:16:20.119Z,5.10
2018-01-31T07:18:48.291Z,5.10
2018-01-31T07:21:16.454Z,5.10
2018-01-31T07:23:44.564Z,5.10
2018-01-31T07:26:12.708Z,5.20
2018-01-31T07:28:40.830Z,5.30
2018-01-31T07:31:09.820Z,5.40
2018-01-31T07:33:37.944Z,5.40
2018-01-31T07:36:06.117Z,5.40
2018-01-31T07:38:34.245Z,5.40
2018-01-31T07:41:03.180Z,5.50
2018-01-31T07:43:31.301Z,5.40
2018-01-31T07:46:00.202Z,5.60
2018-01-31T07:48:28.324Z,5.50
2018-01-31T07:50:56.456Z,5.60
2018-01-31T07:53:24.593Z,5.60
2018-01-31T07:55:52.715Z,5.70
2018-01-31T07:58:20.829Z,5.60
2018-01-31T08:00:49.029Z,5.70
2018-01-31T08:03:17.165Z,5.70
2018-01-31T08:05:45.292Z,5.90
2018-01-31T08:08:13.737Z,6.00
2018-01-31T08:10:42.661Z,6.10
2018-01-31T08:13:11.606Z,6.10
2018-01-31T08:15:39.741Z,6.20
2018-01-31T08:18:07.862Z,6.10
2018-01-31T08:20:36.761Z,6.10
2018-01-31T08:23:05.656Z,6.10
2018-01-31T08:25:33.773Z,6.10
2018-01-31T08:28:02.757Z,6.10
2018-01-31T08:30:31.794Z,6.00
2018-01-31T08:32:59.977Z,6.00
2018-01-31T08:35:28.053Z,5.90
2018-01-31T08:37:56.261Z,5.90
2018-01-31T08:40:25.161Z,5.90
2018-01-31T08:42:53.286Z,5.90
2018-01-31T08:45:21.409Z,5.80
2018-01-31T08:47:49.561Z,5.80
2018-01-31T08:50:17.685Z,5.90
2018-01-31T08:52:46.998Z,5.80
2018-01-31T08:55:15.878Z,5.90
2018-01-31T08:57:44.765Z,5.90
2018-01-31T09:00:13.656Z,6.00
2018-01-31T09:02:42.545Z,6.00
2018-01-31T09:05:11.415Z,6.10
2018-01-31T09:07:54.464Z,6.10
2018-01-31T09:10:22.589Z,6.40
2018-01-31T09:12:50.748Z,6.70
2018-01-31T09:15:18.902Z,7.10
2018-01-31T09:18:01.933Z,7.60
2018-01-31T09:20:30.068Z,7.40
2018-01-31T09:22:58.633Z,7.40
2018-01-31T09:25:26.776Z,7.40
2018-01-31T09:27:54.954Z,7.50
2018-01-31T09:30:23.105Z,8.10
2018-01-31T09:32:51.225Z,8.30
2018-01-31T09:35:20.121Z,10.10
2018-01-31T09:37:49.005Z,11.20
2018-01-31T09:40:17.897Z,11.20
2018-01-31T09:42:46.037Z,11.10
2018-01-31T09:45:14.177Z,10.90
2018-01-31T09:47:42.322Z,10.40
2018-01-31T09:50:11.206Z,11.20
2018-01-31T09:52:40.104Z,9.70
2018-01-31T09:55:08.237Z,9.60
2018-01-31T09:57:36.340Z,9.20
2018-01-31T10:00:21.319Z,8.80
2018-01-31T10:02:49.450Z,8.60
2018-01-31T10:05:17.572Z,8.80
2018-01-31T10:07:45.681Z,8.60
2018-01-31T10:10:13.819Z,8.30
2018-01-31T10:12:41.952Z,8.20
2018-01-31T10:15:10.862Z,8.20
2018-01-31T10:17:38.976Z,8.20
2018-01-31T10:20:07.100Z,8.20
2018-01-31T10:22:44.440Z,8.10
2018-01-31T10:25:16.632Z,7.90
2018-01-31T10:27:45.519Z,8.00
2018-01-31T10:30:14.476Z,8.00
2018-01-31T10:32:42.609Z,8.00
2018-01-31T10:35:10.746Z,8.30
2018-01-31T10:37:38.848Z,8.50
2018-01-31T10:40:06.982Z,8.70
2018-01-31T10:42:35.093Z,8.80
2018-01-31T10:45:03.225Z,8.40
2018-01-31T10:47:31.335Z,8.50
2018-01-31T10:49:59.604Z,8.50
2018-01-31T10:52:27.716Z,8.70
2018-01-31T10:57:29.122Z,8.60
2018-01-31T10:59:52.116Z,8.60
2018-01-31T11:02:20.244Z,8.50
2018-01-31T11:04:49.128Z,8.50
2018-01-31T11:07:18.025Z,8.60
2018-01-31T11:09:46.289Z,8.60
2018-01-31T11:12:15.193Z,8.50
2018-01-31T11:14:44.064Z,8.60
2018-01-31T11:17:12.960Z,8.50
2018-01-31T11:19:41.845Z,8.60
2018-01-31T11:22:10.732Z,8.50
2018-01-31T11:24:39.608Z,8.40
2018-01-31T11:27:07.748Z,8.40
2018-01-31T11:29:35.882Z,8.40
2018-01-31T11:32:04.005Z,8.30
2018-01-31T11:34:32.144Z,8.30
2018-01-31T11:37:00.265Z,8.30
2018-01-31T11:39:28.416Z,8.30
2018-01-31T11:41:56.549Z,8.40
2018-01-31T11:44:24.721Z,8.70
2018-01-31T11:46:52.825Z,9.00
2018-01-31T11:49:20.966Z,9.40
2018-01-31T11:51:49.068Z,9.40
2018-01-31T11:54:17.196Z,9.30
2018-01-31T11:56:45.317Z,9.20
2018-01-31T11:59:13.466Z,9.30
2018-01-31T12:01:41.666Z,9.10
2018-01-31T12:04:09.789Z,8.90
2018-01-31T12:06:37.916Z,8.70
2018-01-31T12:22:47.129Z,8.30
2018-01-31T12:28:28.797Z,8.30
2018-01-31T12:31:08.844Z,8.20
2018-01-31T12:33:48.724Z,8.30
2018-01-31T12:50:03.982Z,7.20
2018-01-31T12:52:43.994Z,7.20
2018-01-31T12:55:24.542Z,7.10
2018-01-31T12:58:04.368Z,7.10
2018-01-31T13:00:39.260Z,7.00
2018-01-31T13:03:19.141Z,6.90
2018-01-31T13:05:58.992Z,6.90
2018-01-31T13:08:39.009Z,6.80
2018-01-31T13:11:18.869Z,6.90
2018-01-31T13:13:52.686Z,6.90
2018-01-31T13:16:32.697Z,6.90
2018-01-31T13:19:12.645Z,6.90
2018-01-31T13:21:52.677Z,6.90
2018-01-31T13:24:32.690Z,7.00
2018-01-31T13:27:13.379Z,7.30
2018-01-31T13:29:53.459Z,7.20
2018-01-31T13:32:33.260Z,7.20
2018-01-31T13:35:13.142Z,7.20
2018-01-31T13:37:59.581Z,7.20
2018-01-31T13:40:40.223Z,7.40
2018-01-31T13:46:21.056Z,7.60
2018-01-31T13:49:00.824Z,7.60
2018-01-31T13:51:40.735Z,7.50
2018-01-31T13:54:20.618Z,7.70
2018-01-31T13:57:00.385Z,7.70
2018-01-31T13:59:40.323Z,8.10
2018-01-31T14:02:20.202Z,8.40
2018-01-31T14:05:00.888Z,8.20
2018-01-31T14:07:40.674Z,8.10
2018-01-31T14:10:20.657Z,7.90
2018-01-31T14:13:00.498Z,7.90
2018-01-31T14:15:40.324Z,8.00
2018-01-31T14:18:20.252Z,7.90
2018-01-31T14:21:00.070Z,8.00
2018-01-31T14:23:40.053Z,7.90
2018-01-31T14:26:19.853Z,7.80
2018-01-31T14:29:00.524Z,7.60
2018-01-31T14:31:40.348Z,7.50
2018-01-31T14:34:21.081Z,7.60
2018-01-31T14:36:48.717Z,7.50
2018-01-31T14:39:16.374Z,7.50
2018-01-31T14:41:44.800Z,7.60
2018-01-31T14:44:12.468Z,7.60
2018-01-31T14:46:40.895Z,7.60
2018-01-31T14:49:08.532Z,7.60
2018-01-31T14:51:36.532Z,7.60
2018-01-31T14:54:04.536Z,7.60
2018-01-31T14:56:32.242Z,7.50
2018-01-31T14:58:59.953Z,7.60
2018-01-31T15:01:27.759Z,7.60
2018-01-31T15:03:55.579Z,7.60
2018-01-31T15:06:24.048Z,7.50
2018-01-31T15:08:52.852Z,7.60
2018-01-31T15:11:20.527Z,7.60
2018-01-31T15:13:48.583Z,7.60
2018-01-31T15:16:16.325Z,7.60
2018-01-31T15:18:43.997Z,7.50
2018-01-31T15:21:11.632Z,7.60
2018-01-31T15:23:39.339Z,7.60
2018-01-31T15:26:06.940Z,7.50
2018-01-31T15:28:34.731Z,7.60
2018-01-31T15:31:02.416Z,7.60
2018-01-31T15:33:30.075Z,7.60
2018-01-31T15:35:58.577Z,7.40
2018-01-31T15:38:27.022Z,7.50
2018-01-31T15:40:54.804Z,7.40
2018-01-31T15:43:22.458Z,7.50
2018-01-31T15:45:50.941Z,7.30
2018-01-31T15:48:19.427Z,7.40
2018-01-31T15:50:47.892Z,7.30
2018-01-31T15:53:15.574Z,7.40
2018-01-31T15:55:44.002Z,7.40
2018-01-31T15:58:12.017Z,7.40
2018-01-31T16:00:39.676Z,7.40
2018-01-31T16:03:07.431Z,7.30
2018-01-31T16:05:35.147Z,7.30
2018-01-31T16:08:02.801Z,7.30
2018-01-31T16:10:30.542Z,7.20
2018-01-31T16:12:58.246Z,7.20
2018-01-31T16:15:25.900Z,7.30
2018-01-31T16:17:54.109Z,7.30
2018-01-31T16:20:34.314Z,7.30
2018-01-31T16:23:02.470Z,7.30
2018-01-31T16:25:30.581Z,7.20
2018-01-31T16:28:11.386Z,7.20
2018-01-31T16:30:47.404Z,7.20
2018-01-31T16:33:39.488Z,7.20
2018-01-31T16:36:07.787Z,7.20
2018-01-31T16:38:35.909Z,7.20
2018-01-31T16:41:04.053Z,7.10
2018-01-31T16:43:32.188Z,7.10
2018-01-31T16:46:00.325Z,7.10
2018-01-31T16:48:28.462Z,7.20
2018-01-31T16:50:56.657Z,7.20
2018-01-31T16:53:25.536Z,7.10
2018-01-31T16:55:53.652Z,7.10
2018-01-31T16:58:21.888Z,7.00
2018-01-31T17:00:50.012Z,7.00
2018-01-31T17:03:18.144Z,7.00
2018-01-31T17:05:47.024Z,7.10
2018-01-31T17:08:15.949Z,7.10
2018-01-31T17:10:44.061Z,7.10
2018-01-31T17:13:12.194Z,7.10
2018-01-31T17:15:40.320Z,7.00
2018-01-31T17:18:08.461Z,7.10
2018-01-31T17:20:36.583Z,7.00
2018-01-31T17:23:05.502Z,7.10
2018-01-31T17:25:33.617Z,7.10
2018-01-31T17:28:01.763Z,7.10
2018-01-31T17:30:29.909Z,7.00
2018-01-31T17:32:58.024Z,7.00
2018-01-31T17:35:26.175Z,6.90
2018-01-31T17:37:54.304Z,7.00
2018-01-31T17:40:22.549Z,6.90
2018-01-31T17:42:50.687Z,6.90
2018-01-31T17:45:18.817Z,6.90
2018-01-31T17:47:46.937Z,6.90
2018-01-31T17:50:15.101Z,6.90
2018-01-31T17:52:43.211Z,6.90
2018-01-31T17:55:11.800Z,6.80
2018-01-31T17:57:39.909Z,6.80
2018-01-31T18:00:08.060Z,6.80
2018-01-31T18:02:36.189Z,6.80
2018-01-31T18:05:04.320Z,6.80
2018-01-31T18:07:32.456Z,6.80
2018-01-31T18:10:01.351Z,6.80
2018-01-31T18:12:30.255Z,6.80
2018-01-31T18:14:58.414Z,6.70
2018-01-31T18:17:27.357Z,6.60
2018-01-31T18:19:55.538Z,6.60
2018-01-31T18:22:24.852Z,6.60
2018-01-31T18:24:53.877Z,6.60
2018-01-31T18:27:22.113Z,6.60
2018-01-31T18:29:50.398Z,6.60
2018-01-31T18:32:20.109Z,6.60
2018-01-31T18:34:52.809Z,6.60
2018-01-31T18:37:21.072Z,6.60
2018-01-31T18:39:49.410Z,6.60
2018-01-31T18:42:17.672Z,6.60
2018-01-31T18:44:45.901Z,6.60
2018-01-31T18:47:14.157Z,6.60
2018-01-31T18:49:42.312Z,6.60
2018-01-31T18:52:11.715Z,6.80
2018-01-31T18:54:40.096Z,6.80
2018-01-31T18:57:08.374Z,6.70
2018-01-31T18:59:37.157Z,6.60
2018-01-31T19:02:05.392Z,6.50
2018-01-31T19:04:34.297Z,6.50
2018-01-31T19:07:02.436Z,6.40
2018-01-31T19:09:30.630Z,6.50
2018-01-31T19:11:58.894Z,6.40
2018-01-31T19:14:27.802Z,6.40
2018-01-31T19:16:57.057Z,6.40
2018-01-31T19:19:25.285Z,6.40
2018-01-31T19:22:00.304Z,6.40
2018-01-31T19:24:28.556Z,6.40
2018-01-31T19:26:56.700Z,6.40
2018-01-31T19:29:24.877Z,6.30
2018-01-31T19:31:53.060Z,6.40
2018-01-31T19:34:21.207Z,6.30
2018-01-31T19:36:49.383Z,6.40
2018-01-31T19:39:17.555Z,6.40
2018-01-31T19:41:45.777Z,6.40
2018-01-31T19:44:13.992Z,6.30
2018-01-31T19:46:42.100Z,6.30
2018-01-31T19:49:11.184Z,6.30
2018-01-31T19:51:39.384Z,6.20
2018-01-31T19:54:07.615Z,6.30
2018-01-31T19:56:35.729Z,6.30
2018-01-31T19:59:04.681Z,6.50
2018-01-31T20:01:32.905Z,6.50
2018-01-31T20:04:01.149Z,6.50
2018-01-31T20:06:29.325Z,6.70
2018-01-31T20:08:57.505Z,6.80
2018-01-31T20:11:25.652Z,6.70
2018-01-31T20:13:53.788Z,6.40
2018-01-31T20:16:21.904Z,6.30
2018-01-31T20:18:50.088Z,6.30
2018-01-31T20:21:23.696Z,6.20
2018-01-31T20:24:08.594Z,6.20
2018-01-31T20:26:52.471Z,6.20
2018-01-31T20:29:37.461Z,6.10
2018-01-31T20:32:06.765Z,6.10
2018-01-31T20:34:35.725Z,6.00
2018-01-31T20:37:04.646Z,6.00
2018-01-31T20:39:32.824Z,6.00
2018-01-31T20:42:00.996Z,6.10
2018-01-31T20:44:30.225Z,6.00
2018-01-31T20:46:58.347Z,6.00
2018-01-31T20:49:27.279Z,6.00
2018-01-31T20:51:55.449Z,5.90
2018-01-31T20:54:23.791Z,5.90
2018-01-31T20:56:51.901Z,6.00
2018-01-31T20:59:20.069Z,5.90
2018-01-31T21:01:48.304Z,5.90
2018-01-31T21:04:17.970Z,5.90
2018-01-31T21:06:46.825Z,5.90
2018-01-31T21:09:14.925Z,5.80
2018-01-31T21:11:43.905Z,5.80
2018-01-31T21:14:12.085Z,5.70
2018-01-31T21:16:40.206Z,5.70
2018-01-31T21:19:09.148Z,5.70
2018-01-31T21:21:37.276Z,5.70
2018-01-31T21:24:06.199Z,5.70
2018-01-31T21:26:34.329Z,5.70
2018-01-31T21:29:02.473Z,5.60
2018-01-31T21:31:30.673Z,5.60
2018-01-31T21:33:59.604Z,5.60
2018-01-31T21:36:27.769Z,5.60
2018-01-31T21:38:55.885Z,5.60
2018-01-31T21:41:24.047Z,5.60
2018-01-31T21:43:53.003Z,5.60
2018-01-31T21:46:21.104Z,5.60
2018-01-31T21:48:49.247Z,5.60
2018-01-31T21:51:17.413Z,5.50
2018-01-31T21:53:45.537Z,5.50
2018-01-31T21:56:13.685Z,5.50
2018-01-31T21:58:41.888Z,5.50
2018-01-31T22:01:10.046Z,5.50
2018-01-31T22:03:38.169Z,5.50
2018-01-31T22:06:06.656Z,5.50
2018-01-31T22:08:34.833Z,5.50
2018-01-31T22:11:03.022Z,5.50
2018-01-31T22:13:31.245Z,5.50
2018-01-31T22:16:00.118Z,5.40
2018-01-31T22:18:29.009Z,5.40
2018-01-31T22:20:57.893Z,5.40
2018-01-31T22:23:26.794Z,5.40
2018-01-31T22:25:55.680Z,5.40
2018-01-31T22:28:24.634Z,5.30
2018-01-31T22:30:52.758Z,5.30
2018-01-31T22:33:20.882Z,5.30
2018-01-31T22:35:49.059Z,5.30
2018-01-31T22:38:17.209Z,5.30
2018-01-31T22:40:45.329Z,5.30
2018-01-31T22:43:14.214Z,5.30
2018-01-31T22:45:43.515Z,5.30
2018-01-31T22:48:12.392Z,5.20
2018-01-31T22:50:41.289Z,5.30
2018-01-31T22:53:11.077Z,5.30
2018-01-31T22:55:39.207Z,5.30
2018-01-31T22:58:07.330Z,5.20
2018-01-31T23:00:35.492Z,5.30
2018-01-31T23:03:03.610Z,5.30
2018-01-31T23:05:31.772Z,5.30
2018-01-31T23:07:59.943Z,5.20
2018-01-31T23:10:28.820Z,5.20
2018-01-31T23:26:24.512Z,5.20
2018-01-31T23:28:53.402Z,5.20
2018-01-31T23:31:22.382Z,5.10
2018-01-31T23:33:50.498Z,5.10
2018-01-31T23:36:18.652Z,5.20
2018-01-31T23:38:46.789Z,5.20
2018-01-31T23:41:14.929Z,5.10
2018-01-31T23:43:43.085Z,5.10
2018-01-31T23:46:11.214Z,5.10
2018-01-31T23:48:40.096Z,5.10
2018-01-31T23:51:08.229Z,5.10
2018-01-31T23:53:36.359Z,5.20
2018-01-31T23:56:04.504Z,5.10
2018-01-31T23:58:32.609Z,5.10
